createdAt,value
2022-12-11T05:01:32.056Z,22.73
2022-12-11T05:05:53.873Z,23.63
2022-12-11T05:10:06.585Z,23.63
2022-12-11T05:14:18.365Z,26.07
2022-12-11T05:18:29.942Z,23.97
2022-12-11T05:22:41.614Z,20.67
2022-12-11T05:26:53.306Z,21.40
2022-12-11T05:31:17.442Z,22.23
2022-12-11T05:35:29.192Z,23.57
2022-12-11T05:39:43.961Z,23.03
2022-12-11T05:43:56.002Z,22.77
2022-12-11T05:48:14.933Z,25.47
2022-12-11T05:52:30.424Z,20.67
2022-12-11T05:56:45.077Z,24.93
2022-12-11T06:00:56.902Z,21.83
2022-12-11T06:05:08.685Z,19.53
2022-12-11T06:09:20.666Z,23.80
2022-12-11T06:13:32.733Z,19.83
2022-12-11T06:17:44.527Z,20.53
2022-12-11T06:21:56.069Z,21.30
2022-12-11T06:26:08.115Z,20.63
2022-12-11T06:30:19.860Z,21.50
2022-12-11T06:34:31.721Z,20.53
2022-12-11T06:38:44.516Z,22.33
2022-12-11T06:42:56.243Z,21.97
2022-12-11T06:47:08.118Z,21.73
2022-12-11T06:51:22.541Z,24.93
2022-12-11T06:55:37.591Z,21.83
2022-12-11T06:59:49.156Z,21.73
2022-12-11T07:04:00.772Z,27.23
2022-12-11T07:08:12.284Z,23.77
2022-12-11T07:12:24.231Z,25.97
2022-12-11T07:16:36.481Z,24.43
2022-12-11T07:20:48.019Z,25.20
2022-12-11T07:24:59.877Z,21.13
2022-12-11T07:29:11.528Z,25.13
2022-12-11T07:33:23.499Z,23.07
2022-12-11T07:37:35.402Z,29.03
2022-12-11T07:41:47.223Z,27.63
2022-12-11T07:46:07.377Z,28.30
2022-12-11T07:50:20.049Z,25.70
2022-12-11T07:54:31.882Z,25.33
2022-12-11T07:58:43.830Z,26.63
2022-12-11T08:02:55.444Z,24.00
2022-12-11T08:07:07.149Z,30.53
2022-12-11T08:11:19.221Z,29.20
2022-12-11T08:15:31.232Z,23.97
2022-12-11T08:19:42.903Z,21.73
2022-12-11T08:23:55.835Z,24.20
2022-12-11T08:28:07.504Z,26.37
2022-12-11T08:32:19.197Z,25.80
2022-12-11T08:36:31.825Z,24.90
2022-12-11T08:40:43.759Z,21.27
2022-12-11T08:44:55.318Z,21.80
2022-12-11T08:49:06.910Z,20.43
2022-12-11T08:53:18.507Z,19.23
2022-12-11T08:57:29.945Z,20.73
2022-12-11T09:01:41.929Z,23.30
2022-12-11T09:05:53.451Z,23.27
2022-12-11T09:10:06.892Z,24.27
2022-12-11T09:14:18.423Z,24.30
2022-12-11T09:18:29.872Z,20.27
2022-12-11T09:22:42.765Z,19.60
2022-12-11T09:26:54.558Z,18.47
2022-12-11T09:31:10.909Z,22.97
2022-12-11T09:35:22.513Z,19.27
2022-12-11T09:39:33.984Z,20.17
2022-12-11T09:44:20.259Z,18.00
2022-12-11T09:48:33.657Z,21.40
2022-12-11T09:53:11.388Z,18.67
2022-12-11T09:57:25.891Z,20.43
2022-12-11T10:01:41.329Z,25.07
2022-12-11T10:06:05.072Z,20.10
2022-12-11T10:10:38.560Z,22.67
2022-12-11T10:15:13.221Z,23.77
2022-12-11T10:19:28.653Z,30.97
2022-12-11T10:23:58.366Z,20.60
2022-12-11T10:28:14.901Z,16.40
2022-12-11T10:32:39.906Z,16.47
2022-12-11T10:36:54.762Z,17.47
2022-12-11T10:41:13.652Z,18.13
2022-12-11T10:45:25.113Z,17.80
2022-12-11T10:49:39.118Z,21.87
2022-12-11T10:53:57.100Z,21.43
2022-12-11T10:58:19.045Z,18.27
2022-12-11T11:02:41.377Z,20.60
2022-12-11T11:07:27.068Z,18.83
2022-12-11T11:11:39.365Z,21.00
2022-12-11T11:16:00.241Z,19.20
2022-12-11T11:20:19.118Z,21.77
2022-12-11T11:24:37.579Z,19.10
2022-12-11T11:28:55.721Z,22.03
2022-12-11T11:33:20.671Z,17.40
2022-12-11T11:37:34.248Z,17.47
2022-12-11T11:41:53.752Z,16.87
2022-12-11T11:46:20.277Z,17.77
2022-12-11T11:50:35.712Z,17.93
2022-12-11T11:55:08.813Z,14.17
2022-12-11T11:59:56.145Z,17.53
2022-12-11T12:04:07.842Z,15.07
2022-12-11T12:08:51.874Z,16.70
2022-12-11T12:13:47.718Z,18.23
2022-12-11T12:18:02.698Z,15.83
2022-12-11T12:22:35.706Z,16.57
2022-12-11T12:27:17.587Z,13.57
2022-12-11T12:32:09.556Z,17.80
2022-12-11T12:36:37.576Z,15.70
2022-12-11T12:41:14.193Z,14.70
2022-12-11T12:45:39.972Z,14.30
2022-12-11T12:49:54.344Z,19.43
2022-12-11T12:54:12.248Z,14.63
2022-12-11T12:58:39.929Z,14.70
2022-12-11T13:02:53.626Z,12.80
2022-12-11T13:07:23.426Z,15.73
2022-12-11T13:11:36.294Z,13.73
2022-12-11T13:15:47.758Z,13.80
2022-12-11T13:20:31.030Z,13.67
2022-12-11T13:24:58.519Z,14.57
2022-12-11T13:29:34.301Z,15.53
2022-12-11T13:33:49.212Z,14.87
2022-12-11T13:38:08.176Z,13.97
2022-12-11T13:42:34.327Z,16.77
2022-12-11T13:46:46.025Z,16.43
2022-12-11T13:50:58.975Z,14.50
2022-12-11T13:55:25.517Z,13.20
2022-12-11T13:59:41.331Z,14.67
2022-12-11T14:04:04.806Z,17.10
2022-12-11T14:08:32.371Z,26.77
2022-12-11T14:12:51.550Z,20.53
2022-12-11T14:17:03.407Z,20.87
2022-12-11T14:21:24.274Z,20.00
2022-12-11T14:25:35.796Z,18.97
2022-12-11T14:29:47.967Z,20.83
2022-12-11T14:34:15.561Z,17.80
2022-12-11T14:38:30.825Z,22.10
2022-12-11T14:43:00.009Z,22.60
2022-12-11T14:47:22.953Z,20.50
2022-12-11T14:51:42.419Z,24.90
2022-12-11T14:56:21.114Z,22.90
2022-12-11T15:00:39.709Z,23.90
2022-12-11T15:09:46.783Z,25.43
2022-12-11T15:14:00.953Z,21.03
2022-12-11T15:18:24.126Z,26.73
2022-12-11T15:22:44.531Z,26.23
2022-12-11T15:27:32.932Z,31.10
2022-12-11T15:31:44.478Z,30.50
2022-12-11T15:36:05.900Z,25.73
2022-12-11T15:40:17.721Z,28.47
2022-12-11T15:49:58.694Z,25.50
2022-12-11T15:54:10.370Z,24.13
2022-12-11T15:58:24.224Z,27.43
2022-12-11T16:02:48.382Z,24.90
2022-12-11T16:07:00.086Z,29.27
2022-12-11T16:11:13.625Z,29.63
2022-12-11T16:15:28.889Z,28.10
2022-12-11T16:19:42.022Z,29.00
2022-12-11T16:23:53.481Z,29.83
2022-12-11T16:28:06.711Z,29.17
2022-12-11T16:32:18.570Z,28.77
2022-12-11T16:36:30.049Z,28.60
2022-12-11T16:40:41.738Z,24.67
2022-12-11T16:44:54.090Z,40.83
2022-12-11T16:49:05.696Z,32.70
2022-12-11T16:53:17.529Z,39.87
2022-12-11T16:57:28.993Z,33.47
2022-12-11T17:01:40.743Z,29.70
2022-12-11T17:05:52.312Z,36.63
2022-12-11T17:10:04.421Z,33.37
2022-12-11T17:14:15.982Z,37.57
2022-12-11T17:18:27.687Z,39.00
2022-12-11T17:22:39.223Z,29.87
2022-12-11T17:26:50.783Z,35.67
2022-12-11T17:31:12.638Z,33.40
2022-12-11T17:35:24.268Z,32.03
2022-12-11T17:39:37.085Z,37.10
2022-12-11T17:43:50.816Z,33.37
2022-12-11T17:48:02.296Z,36.07
2022-12-11T17:52:13.889Z,30.73
2022-12-11T17:56:26.154Z,34.60
2022-12-11T18:00:42.581Z,38.63
2022-12-11T18:04:54.967Z,32.20
2022-12-11T18:09:06.766Z,30.33
2022-12-11T18:13:26.542Z,29.37
2022-12-11T18:18:21.989Z,34.17
2022-12-11T18:28:44.374Z,38.37
2022-12-11T18:38:37.800Z,31.60
2022-12-11T18:42:53.447Z,38.77
2022-12-11T18:47:15.036Z,48.03
2022-12-11T18:51:26.649Z,44.27
2022-12-11T18:55:46.091Z,44.10
2022-12-11T19:00:02.321Z,31.73
2022-12-11T19:04:13.855Z,36.80
2022-12-11T19:08:25.390Z,38.03
2022-12-11T19:12:36.914Z,39.90
2022-12-11T19:16:49.834Z,35.70
2022-12-11T19:21:08.506Z,33.30
2022-12-11T19:25:20.490Z,35.17
2022-12-11T19:29:34.824Z,34.60
2022-12-11T19:33:46.855Z,40.20
2022-12-11T19:37:58.360Z,32.17
2022-12-11T19:42:10.058Z,31.10
2022-12-11T19:46:22.333Z,36.43
2022-12-11T19:50:36.273Z,34.67
2022-12-11T19:54:47.814Z,33.10
2022-12-11T19:59:01.894Z,39.77
2022-12-11T20:03:13.604Z,43.20
2022-12-11T20:07:30.493Z,43.20
2022-12-11T20:11:44.462Z,34.73
2022-12-11T20:15:56.010Z,34.20
2022-12-11T20:20:07.928Z,33.37
2022-12-11T20:24:19.915Z,36.63
2022-12-11T20:28:31.447Z,35.07
2022-12-11T20:32:43.580Z,34.97
2022-12-11T20:36:56.245Z,37.17
2022-12-11T20:41:13.489Z,33.60
2022-12-11T20:45:25.413Z,32.73
2022-12-11T20:49:37.092Z,29.57
2022-12-11T20:53:50.315Z,30.27
2022-12-11T20:58:01.798Z,34.80
2022-12-11T21:02:13.501Z,37.40
2022-12-11T21:06:31.590Z,31.27
2022-12-11T21:10:46.287Z,32.67
2022-12-11T21:14:57.794Z,31.30
2022-12-11T21:19:16.529Z,28.43
2022-12-11T21:23:28.453Z,28.43
2022-12-11T21:27:39.965Z,28.60
2022-12-11T21:31:51.937Z,28.70
2022-12-11T21:36:05.883Z,27.67
2022-12-11T21:40:17.448Z,30.67
2022-12-11T21:49:00.511Z,24.00
2022-12-11T21:53:12.028Z,26.93
2022-12-11T21:57:26.473Z,25.07
2022-12-11T22:01:41.989Z,27.83
2022-12-11T22:05:53.859Z,26.70
2022-12-11T22:16:26.034Z,26.43
2022-12-11T22:21:13.329Z,30.47
